createdAt,value
2018-06-01T00:00:09.989Z,94960.05
2018-06-01T00:02:38.374Z,94968.31
2018-06-01T00:05:06.755Z,94968.66
2018-06-01T00:07:35.123Z,94968.36
2018-06-01T00:10:03.618Z,94967.08
2018-06-01T00:12:31.984Z,94974.89
2018-06-01T00:15:00.430Z,94972.66
2018-06-01T00:17:28.780Z,94972.28
2018-06-01T00:19:57.161Z,94970.30
2018-06-01T00:22:25.539Z,94973.98
2018-06-01T00:24:53.998Z,94975.20
2018-06-01T00:27:22.387Z,94984.22
2018-06-01T00:29:50.796Z,94981.64
2018-06-01T00:32:19.212Z,94983.48
2018-06-01T00:34:47.684Z,94977.26
2018-06-01T00:37:16.081Z,94971.77
2018-06-01T00:39:44.582Z,94977.09
2018-06-01T00:42:13.044Z,94980.61
2018-06-01T00:44:41.431Z,94980.66
2018-06-01T00:47:09.800Z,94982.28
2018-06-01T00:49:38.180Z,94981.98
2018-06-01T00:52:06.587Z,94982.84
2018-06-01T00:54:46.791Z,94963.16
2018-06-01T00:57:15.213Z,94970.80
2018-06-01T00:59:43.641Z,94969.52
2018-06-01T01:02:11.990Z,94980.97
2018-06-01T01:04:40.354Z,94978.50
2018-06-01T01:07:08.709Z,94982.66
2018-06-01T01:09:37.177Z,94971.99
2018-06-01T01:12:05.559Z,94966.55
2018-06-01T01:14:33.937Z,94969.48
2018-06-01T01:17:02.354Z,94972.45
2018-06-01T01:19:30.783Z,94967.90
2018-06-01T01:21:59.240Z,94963.20
2018-06-01T01:24:27.618Z,94961.88
2018-06-01T01:26:55.989Z,94960.58
2018-06-01T01:29:24.402Z,94967.25
2018-06-01T01:31:52.781Z,94962.09
2018-06-01T01:34:21.210Z,94965.84
2018-06-01T01:36:49.603Z,94976.80
2018-06-01T01:39:17.974Z,94972.14
2018-06-01T01:41:46.508Z,94976.22
2018-06-01T01:44:14.916Z,94979.07
2018-06-01T01:46:43.279Z,94975.98
2018-06-01T01:49:11.695Z,94979.81
2018-06-01T01:51:40.061Z,94980.88
2018-06-01T01:54:08.514Z,94973.88
2018-06-01T01:56:36.896Z,94972.00
2018-06-01T01:59:05.328Z,94966.66
2018-06-01T02:01:33.738Z,94968.62
2018-06-01T02:04:02.257Z,94963.20
2018-06-01T02:06:30.644Z,94961.92
2018-06-01T02:11:33.550Z,94962.02
2018-06-01T02:14:01.917Z,94957.59
2018-06-01T02:16:31.434Z,94957.78
2018-06-01T02:18:59.855Z,94953.08
2018-06-01T02:21:28.230Z,94951.97
2018-06-01T02:23:57.577Z,94953.88
2018-06-01T02:26:26.065Z,94941.08
2018-06-01T02:28:54.434Z,94941.77
2018-06-01T02:31:22.786Z,94943.78
2018-06-01T02:33:53.211Z,94936.98
2018-06-01T02:36:21.608Z,94937.02
2018-06-01T02:38:50.076Z,94931.73
2018-06-01T02:41:18.485Z,94932.87
2018-06-01T02:43:47.911Z,94932.33
2018-06-01T02:46:16.292Z,94924.33
2018-06-01T02:48:45.648Z,94921.50
2018-06-01T02:51:14.064Z,94923.97
2018-06-01T02:53:42.450Z,94921.25
2018-06-01T02:56:10.985Z,94919.09
2018-06-01T02:58:39.341Z,94923.83
2018-06-01T03:01:07.929Z,94918.37
2018-06-01T03:03:36.333Z,94921.17
2018-06-01T03:06:04.825Z,94915.42
2018-06-01T03:08:33.278Z,94919.63
2018-06-01T03:11:01.663Z,94922.00
2018-06-01T03:13:30.065Z,94920.46
2018-06-01T03:15:58.527Z,94923.66
2018-06-01T03:18:26.990Z,94928.14
2018-06-01T03:20:55.481Z,94930.12
2018-06-01T03:23:23.959Z,94934.56
2018-06-01T03:25:52.369Z,94935.16
2018-06-01T03:28:20.754Z,94935.72
2018-06-01T03:30:49.213Z,94937.34
2018-06-01T03:33:18.637Z,94931.48
2018-06-01T03:35:47.180Z,94938.48
2018-06-01T03:38:16.438Z,94945.06
2018-06-01T03:40:45.133Z,94941.02
2018-06-01T03:43:13.508Z,94938.09
2018-06-01T03:45:41.936Z,94935.88
2018-06-01T03:48:10.297Z,94942.48
2018-06-01T03:50:38.700Z,94948.70
2018-06-01T03:53:07.176Z,94939.12
2018-06-01T03:55:35.712Z,94943.09
2018-06-01T03:58:04.094Z,94937.56
2018-06-01T04:00:32.561Z,94943.69
2018-06-01T04:03:01.092Z,94939.82
2018-06-01T04:05:29.526Z,94933.56
2018-06-01T04:07:57.974Z,94931.48
2018-06-01T04:10:26.393Z,94932.66
2018-06-01T04:12:54.898Z,94931.75
2018-06-01T04:15:23.325Z,94931.80
2018-06-01T04:17:53.515Z,94933.06
2018-06-01T04:20:21.909Z,94935.32
2018-06-01T04:22:50.342Z,94939.65
2018-06-01T04:25:18.757Z,94939.72
2018-06-01T04:27:47.235Z,94944.02
2018-06-01T04:30:15.630Z,94938.25
2018-06-01T04:32:44.160Z,94941.13
2018-06-01T04:35:12.544Z,94946.65
2018-06-01T04:37:40.981Z,94947.66
2018-06-01T04:40:09.405Z,94953.95
2018-06-01T04:42:37.825Z,94949.89
2018-06-01T04:45:06.382Z,94951.27
2018-06-01T04:47:34.850Z,94947.50
2018-06-01T04:50:03.351Z,94951.26
2018-06-01T04:52:31.888Z,94948.32
2018-06-01T04:55:00.285Z,94946.36
2018-06-01T04:57:28.632Z,94955.79
2018-06-01T04:59:57.085Z,94958.53
2018-06-01T05:02:25.505Z,94964.29
2018-06-01T05:04:54.076Z,94957.60
2018-06-01T05:07:22.495Z,94952.78
2018-06-01T05:09:50.989Z,94944.77
2018-06-01T05:12:19.457Z,94944.31
2018-06-01T05:14:47.857Z,94957.95
2018-06-01T05:17:16.271Z,94959.27
2018-06-01T05:19:44.823Z,94960.48
2018-06-01T05:22:13.238Z,94952.55
2018-06-01T05:24:42.150Z,94948.67
2018-06-01T05:27:10.606Z,94947.07
2018-06-01T05:29:39.031Z,94938.17
2018-06-01T05:32:07.437Z,94944.77
2018-06-01T05:34:35.852Z,94941.34
2018-06-01T05:37:04.248Z,94947.34
2018-06-01T05:39:32.648Z,94954.19
2018-06-01T05:42:01.132Z,94967.44
2018-06-01T05:44:29.613Z,94970.66
2018-06-01T05:46:58.126Z,94966.61
2018-06-01T05:49:26.765Z,94971.64
2018-06-01T05:51:55.205Z,94987.95
2018-06-01T05:54:23.839Z,95001.64
2018-06-01T05:56:52.416Z,95029.52
2018-06-01T05:59:20.922Z,95040.47
2018-06-01T06:01:49.561Z,95075.44
2018-06-01T06:04:18.235Z,95106.38
2018-06-01T06:06:46.658Z,95095.03
2018-06-01T06:09:15.393Z,95086.20
2018-06-01T06:11:43.774Z,95053.55
2018-06-01T06:14:12.189Z,95002.52
2018-06-01T06:16:40.629Z,95010.36
2018-06-01T06:19:09.049Z,95005.97
2018-06-01T06:21:37.642Z,95012.66
2018-06-01T06:24:06.159Z,95007.84
2018-06-01T06:26:34.548Z,95018.80
2018-06-01T06:29:03.019Z,95012.16
2018-06-01T06:31:38.262Z,95003.72
2018-06-01T06:34:07.764Z,95005.55
2018-06-01T06:36:36.303Z,95003.77
2018-06-01T06:39:05.421Z,95006.92
2018-06-01T06:41:33.824Z,95010.67
2018-06-01T06:44:02.207Z,95011.44
2018-06-01T06:46:30.614Z,95009.19
2018-06-01T06:49:00.104Z,95006.17
2018-06-01T06:51:28.524Z,95004.30
2018-06-01T06:53:57.004Z,95000.58
2018-06-01T06:56:25.392Z,95007.49
2018-06-01T06:58:53.982Z,94996.61
2018-06-01T07:01:22.453Z,94991.37
2018-06-01T07:03:50.955Z,94989.45
2018-06-01T07:06:19.414Z,94989.41
2018-06-01T07:08:47.793Z,94981.84
2018-06-01T07:11:16.261Z,94985.19
2018-06-01T07:13:44.751Z,94989.10
2018-06-01T07:16:13.231Z,94986.66
2018-06-01T07:18:41.715Z,94997.20
2018-06-01T07:21:10.205Z,94994.55
2018-06-01T07:23:38.720Z,94994.00
2018-06-01T07:26:07.233Z,94991.54
2018-06-01T07:28:36.606Z,95005.36
2018-06-01T07:31:05.205Z,94999.40
2018-06-01T07:33:33.638Z,94990.80
2018-06-01T07:36:02.042Z,94996.59
2018-06-01T07:38:30.580Z,94986.84
2018-06-01T07:40:58.964Z,94983.30
2018-06-01T07:43:27.539Z,94983.28
2018-06-01T07:45:56.229Z,94985.64
2018-06-01T07:48:25.036Z,94989.66
2018-06-01T07:50:53.433Z,94996.35
2018-06-01T07:53:21.869Z,95004.48
2018-06-01T07:55:50.557Z,95003.58
2018-06-01T07:58:19.137Z,95009.05
2018-06-01T08:00:47.650Z,95014.73
2018-06-01T08:03:16.082Z,95017.47
2018-06-01T08:05:44.508Z,95006.91
2018-06-01T08:08:13.173Z,95009.81
2018-06-01T08:10:41.681Z,95018.29
2018-06-01T08:13:10.247Z,95021.25
2018-06-01T08:15:38.640Z,95021.04
2018-06-01T08:18:07.177Z,95019.62
2018-06-01T08:20:35.657Z,95019.98
2018-06-01T08:23:04.070Z,95026.64
2018-06-01T08:25:32.546Z,95030.72
2018-06-01T08:28:01.022Z,95037.42
2018-06-01T08:30:29.551Z,95040.01
2018-06-01T08:32:57.999Z,95045.45
2018-06-01T08:35:26.472Z,95040.95
2018-06-01T08:37:54.930Z,95033.97
2018-06-01T08:40:23.442Z,95036.80
2018-06-01T08:42:51.970Z,95037.77
2018-06-01T08:45:20.432Z,95035.11
2018-06-01T08:47:48.862Z,95035.75
2018-06-01T08:50:17.317Z,95037.35
2018-06-01T08:52:45.827Z,95039.23
2018-06-01T08:55:14.410Z,95044.54
2018-06-01T08:57:43.007Z,95054.09
2018-06-01T09:00:11.493Z,95046.29
2018-06-01T09:02:40.011Z,95047.16
2018-06-01T09:05:08.500Z,95038.44
2018-06-01T09:07:37.042Z,95038.95
2018-06-01T09:10:05.532Z,95038.88
2018-06-01T09:12:34.933Z,95043.49
2018-06-01T09:15:03.368Z,95040.70
2018-06-01T09:17:31.855Z,95039.15
2018-06-01T09:20:00.420Z,95031.64
2018-06-01T09:22:28.846Z,95030.45
2018-06-01T09:24:57.351Z,95029.74
2018-06-01T09:27:25.801Z,95028.52
2018-06-01T09:29:54.375Z,95026.22
2018-06-01T09:32:22.819Z,95025.59
2018-06-01T09:34:51.209Z,95022.38
2018-06-01T09:37:19.652Z,95021.61
2018-06-01T09:39:48.073Z,95024.19
2018-06-01T09:42:16.652Z,95016.25
2018-06-01T09:44:45.165Z,95031.82
2018-06-01T09:47:13.609Z,95030.81
2018-06-01T09:49:43.031Z,95033.13
2018-06-01T09:52:11.440Z,95027.03
2018-06-01T09:54:39.904Z,95021.91
2018-06-01T09:57:08.481Z,95027.88
2018-06-01T09:59:36.986Z,95021.67
2018-06-01T10:02:05.378Z,95023.55
2018-06-01T10:04:33.849Z,95023.77
2018-06-01T10:07:02.317Z,95014.54
2018-06-01T10:09:31.698Z,95018.56
2018-06-01T10:12:00.155Z,95020.25
2018-06-01T10:14:28.601Z,95018.22
2018-06-01T10:16:57.009Z,95018.20
2018-06-01T10:19:25.471Z,95020.98
2018-06-01T10:21:53.944Z,95023.09
2018-06-01T10:24:22.417Z,95028.47
2018-06-01T10:26:50.876Z,95024.61
2018-06-01T10:29:19.574Z,95031.93
2018-06-01T10:31:48.065Z,95036.05
2018-06-01T10:34:16.570Z,95036.66
2018-06-01T10:36:45.040Z,95037.31
2018-06-01T10:39:13.743Z,95044.19
2018-06-01T10:41:42.528Z,95045.59
2018-06-01T10:44:11.104Z,95046.92
2018-06-01T10:46:39.504Z,95045.84
2018-06-01T10:49:08.034Z,95056.90
2018-06-01T10:51:36.586Z,95049.55
2018-06-01T10:54:05.144Z,95046.05
2018-06-01T10:56:33.759Z,95046.36
2018-06-01T10:59:02.224Z,95039.78
2018-06-01T11:01:30.724Z,95042.08
2018-06-01T11:03:59.344Z,95046.77
2018-06-01T11:06:28.032Z,95040.63
2018-06-01T11:08:56.557Z,95038.83
2018-06-01T11:11:24.954Z,95047.66
2018-06-01T11:13:55.051Z,95054.34
2018-06-01T11:16:23.730Z,95056.59
2018-06-01T11:18:52.741Z,95058.19
2018-06-01T11:21:21.445Z,95067.09
2018-06-01T11:23:50.042Z,95066.00
2018-06-01T11:26:18.590Z,95066.91
2018-06-01T11:28:47.113Z,95074.12
2018-06-01T11:31:15.810Z,95073.12
2018-06-01T11:33:45.409Z,95080.80
2018-06-01T11:36:14.404Z,95080.44
2018-06-01T11:38:43.087Z,95079.11
2018-06-01T11:41:12.508Z,95078.51
2018-06-01T11:43:41.384Z,95074.56
2018-06-01T11:46:10.021Z,95072.17
2018-06-01T11:48:38.573Z,95067.56
2018-06-01T11:51:07.072Z,95067.72
2018-06-01T11:53:35.647Z,95071.06
2018-06-01T11:56:04.063Z,95064.22
2018-06-01T11:58:32.518Z,95064.73
2018-06-01T12:01:00.988Z,95053.85
2018-06-01T12:03:29.447Z,95053.03
2018-06-01T12:05:58.082Z,95048.31
2018-06-01T12:08:26.850Z,95054.11
2018-06-01T12:10:55.334Z,95049.31
2018-06-01T12:13:23.884Z,95044.19
2018-06-01T12:15:52.325Z,95037.81
2018-06-01T12:18:20.806Z,95045.45
2018-06-01T12:20:49.372Z,95051.12
2018-06-01T12:23:18.863Z,95044.15
2018-06-01T12:25:47.444Z,95040.95
2018-06-01T12:28:15.901Z,95038.03
2018-06-01T12:30:44.512Z,95037.08
2018-06-01T12:33:15.352Z,95021.41
2018-06-01T12:35:44.864Z,95023.94
2018-06-01T12:38:14.030Z,95024.63
2018-06-01T12:40:42.777Z,95020.70
2018-06-01T12:43:11.338Z,95017.81
2018-06-01T12:45:39.728Z,95024.34
2018-06-01T12:48:08.519Z,95013.17
2018-06-01T12:50:37.152Z,95020.59
2018-06-01T12:53:05.666Z,95015.87
2018-06-01T12:55:34.117Z,95014.61
2018-06-01T12:58:03.076Z,95013.65
2018-06-01T13:00:31.673Z,95015.36
2018-06-01T13:03:00.217Z,95024.33
2018-06-01T13:05:29.276Z,95020.02
2018-06-01T13:07:57.699Z,95020.63
2018-06-01T13:10:26.378Z,95023.39
2018-06-01T13:12:54.874Z,95018.38
2018-06-01T13:15:23.344Z,95026.40
2018-06-01T13:17:52.849Z,95018.91
2018-06-01T13:20:21.476Z,95014.86
2018-06-01T13:22:49.864Z,95017.54
2018-06-01T13:25:19.576Z,95011.69
2018-06-01T13:27:48.058Z,95009.94
2018-06-01T13:30:16.458Z,95010.17
2018-06-01T13:32:44.966Z,95009.17
2018-06-01T13:35:17.406Z,95003.66
2018-06-01T13:37:47.860Z,94997.59
2018-06-01T13:40:16.527Z,95002.30
2018-06-01T13:42:44.888Z,95004.14
2018-06-01T13:45:13.364Z,95008.49
2018-06-01T13:47:41.900Z,95005.12
2018-06-01T13:50:10.544Z,95007.22
2018-06-01T13:52:39.279Z,95002.73
2018-06-01T13:55:09.043Z,95004.30
2018-06-01T13:57:37.817Z,95001.95
2018-06-01T14:00:08.172Z,95000.58
2018-06-01T14:02:36.805Z,94991.03
2018-06-01T14:05:06.256Z,94989.48
2018-06-01T14:07:35.030Z,94989.28
2018-06-01T14:10:03.377Z,94982.20
2018-06-01T14:12:31.884Z,94981.05
2018-06-01T14:15:00.731Z,94983.74
2018-06-01T14:17:29.279Z,94979.59
2018-06-01T14:19:57.672Z,94980.55
2018-06-01T14:22:26.075Z,94977.55
2018-06-01T14:24:54.610Z,94982.56
2018-06-01T14:27:23.344Z,94995.02
2018-06-01T14:29:52.343Z,94987.30
2018-06-01T14:32:20.785Z,94982.14
2018-06-01T14:34:50.807Z,94981.47
2018-06-01T14:37:19.225Z,94992.03
2018-06-01T14:39:48.592Z,94992.22
2018-06-01T14:42:17.084Z,94989.44
2018-06-01T14:44:45.538Z,94992.90
2018-06-01T14:47:14.353Z,94990.02
2018-06-01T14:49:42.724Z,94988.83
2018-06-01T14:52:11.131Z,94994.95
2018-06-01T14:54:39.767Z,94993.42
2018-06-01T14:57:11.507Z,94990.48
2018-06-01T14:59:40.644Z,94991.82
2018-06-01T15:02:09.721Z,94983.73
2018-06-01T15:04:38.497Z,94984.73
2018-06-01T15:07:07.299Z,94984.39
2018-06-01T15:09:36.311Z,94981.73
2018-06-01T15:12:07.848Z,94985.34
2018-06-01T15:14:36.859Z,94985.37
2018-06-01T15:17:06.679Z,94983.92
2018-06-01T15:19:35.367Z,94983.27
2018-06-01T15:22:03.818Z,94980.06
2018-06-01T15:24:35.838Z,94977.18
2018-06-01T15:27:04.308Z,94978.66
2018-06-01T15:29:32.772Z,94969.25
2018-06-01T15:32:01.221Z,94975.92
2018-06-01T15:34:29.586Z,94971.27
2018-06-01T15:36:58.027Z,94960.52
2018-06-01T15:39:28.525Z,94968.07
2018-06-01T15:41:58.011Z,94972.44
2018-06-01T15:44:26.528Z,94980.88
2018-06-01T15:47:00.771Z,94982.59
2018-06-01T15:49:29.486Z,94972.72
2018-06-01T15:51:58.238Z,94971.83
2018-06-01T15:54:26.658Z,94976.67
2018-06-01T15:56:55.061Z,94971.63
2018-06-01T15:59:23.589Z,94975.06
2018-06-01T16:01:52.049Z,94961.88
2018-06-01T16:04:25.640Z,94967.53
2018-06-01T16:06:54.503Z,94971.89
2018-06-01T16:09:24.211Z,94970.95
2018-06-01T16:11:52.918Z,94979.60
2018-06-01T16:14:21.681Z,94975.24
2018-06-01T16:16:50.310Z,94975.52
2018-06-01T16:19:18.784Z,94975.35
2018-06-01T16:21:47.326Z,94986.08
2018-06-01T16:24:15.837Z,94981.13
2018-06-01T16:26:44.303Z,94983.56
2018-06-01T16:29:12.781Z,94985.31
2018-06-01T16:31:41.181Z,94994.09
2018-06-01T16:34:09.682Z,94996.47
2018-06-01T16:36:38.154Z,95003.67
2018-06-01T16:39:06.547Z,94997.41
2018-06-01T16:41:35.239Z,95006.47
2018-06-01T16:44:03.626Z,95000.37
2018-06-01T16:46:32.108Z,95008.45
2018-06-01T16:49:02.594Z,95007.34
2018-06-01T16:51:31.169Z,95006.42
2018-06-01T16:54:01.033Z,95012.44
2018-06-01T16:56:31.601Z,95008.42
2018-06-01T16:59:00.162Z,95011.66
2018-06-01T17:01:28.632Z,95009.27
2018-06-01T17:03:57.376Z,95012.54
2018-06-01T17:06:25.983Z,95009.58
2018-06-01T17:08:54.469Z,95010.70
2018-06-01T17:11:23.073Z,95010.37
2018-06-01T17:13:51.572Z,95011.64
2018-06-01T17:16:20.987Z,95013.80
2018-06-01T17:18:49.384Z,95023.64
2018-06-01T17:21:17.816Z,95020.92
2018-06-01T17:23:46.165Z,95021.13
2018-06-01T17:26:14.518Z,95033.70
2018-06-01T17:28:42.907Z,95024.12
2018-06-01T17:31:11.298Z,95026.02
2018-06-01T17:33:39.748Z,95031.17
2018-06-01T17:36:08.254Z,95029.58
2018-06-01T17:38:36.858Z,95027.84
2018-06-01T17:41:05.600Z,95026.44
2018-06-01T17:43:35.110Z,95023.44
2018-06-01T17:46:03.463Z,95023.39
2018-06-01T17:48:32.879Z,95021.02
2018-06-01T17:51:01.356Z,95032.25
2018-06-01T17:53:29.767Z,95031.63
2018-06-01T17:55:58.289Z,95036.73
2018-06-01T17:58:27.731Z,95030.00
2018-06-01T18:00:56.172Z,95036.52
2018-06-01T18:03:24.633Z,95032.17
2018-06-01T18:05:53.135Z,95031.03
2018-06-01T18:08:21.658Z,95030.55
2018-06-01T18:10:50.095Z,95030.24
2018-06-01T18:13:18.555Z,95025.39
2018-06-01T18:15:46.970Z,95023.70
2018-06-01T18:18:15.484Z,95029.11
2018-06-01T18:20:43.946Z,95028.39
2018-06-01T18:23:12.404Z,95037.41
2018-06-01T18:25:41.164Z,95039.33
2018-06-01T18:28:09.572Z,95038.02
2018-06-01T18:30:38.235Z,95040.03
2018-06-01T18:33:06.671Z,95041.25
2018-06-01T18:35:35.061Z,95039.71
2018-06-01T18:38:03.538Z,95042.97
2018-06-01T18:40:32.980Z,95044.13
2018-06-01T18:43:01.477Z,95039.16
2018-06-01T18:45:30.954Z,95044.93
2018-06-01T18:47:59.385Z,95048.75
2018-06-01T18:50:27.926Z,95047.45
2018-06-01T18:52:56.353Z,95048.37
2018-06-01T18:55:24.783Z,95045.31
2018-06-01T18:57:53.194Z,95054.20
2018-06-01T19:00:22.656Z,95056.47
2018-06-01T19:02:51.079Z,95054.66
2018-06-01T19:05:21.611Z,95059.91
2018-06-01T19:07:51.295Z,95059.38
2018-06-01T19:10:19.994Z,95062.42
2018-06-01T19:12:49.287Z,95064.86
2018-06-01T19:15:17.730Z,95057.30
2018-06-01T19:17:46.125Z,95063.94
2018-06-01T19:20:14.605Z,95072.42
2018-06-01T19:22:43.083Z,95069.77
2018-06-01T19:25:11.456Z,95076.92
2018-06-01T19:27:40.024Z,95083.67
2018-06-01T19:30:08.395Z,95084.22
2018-06-01T19:32:36.767Z,95094.73
2018-06-01T19:35:05.268Z,95100.16
2018-06-01T19:37:33.657Z,95102.96
2018-06-01T19:40:02.246Z,95108.92
2018-06-01T19:42:30.729Z,95116.75
2018-06-01T19:44:59.201Z,95116.31
2018-06-01T19:47:27.709Z,95112.98
2018-06-01T19:49:56.161Z,95105.30
2018-06-01T19:52:24.763Z,95107.93
2018-06-01T19:54:53.159Z,95103.62
2018-06-01T19:57:21.552Z,95105.80
2018-06-01T19:59:50.013Z,95104.12
2018-06-01T20:02:18.695Z,95108.47
2018-06-01T20:04:47.244Z,95106.48
2018-06-01T20:07:16.701Z,95113.50
2018-06-01T20:09:45.208Z,95104.23
2018-06-01T20:12:13.707Z,95106.63
2018-06-01T20:14:42.157Z,95102.59
2018-06-01T20:17:10.802Z,95100.22
2018-06-01T20:19:39.224Z,95095.13
2018-06-01T20:22:07.646Z,95091.92
2018-06-01T20:24:36.083Z,95092.54
2018-06-01T20:27:04.460Z,95095.59
2018-06-01T20:29:34.172Z,95096.27
2018-06-01T20:32:03.129Z,95090.19
2018-06-01T20:34:32.111Z,95090.41
2018-06-01T20:37:01.328Z,95085.91
2018-06-01T20:39:29.988Z,95085.71
2018-06-01T20:41:59.276Z,95088.70
2018-06-01T20:44:28.204Z,95083.51
2018-06-01T20:46:57.609Z,95091.20
2018-06-01T20:49:27.137Z,95089.20
2018-06-01T20:51:58.127Z,95090.07
2018-06-01T20:54:28.631Z,95094.02
2018-06-01T20:56:59.011Z,95091.83
2018-06-01T20:59:29.641Z,95093.20
2018-06-01T21:01:58.846Z,95102.84
2018-06-01T21:04:30.234Z,95095.56
2018-06-01T21:06:59.208Z,95108.86
2018-06-01T21:09:28.221Z,95109.30
2018-06-01T21:11:57.571Z,95113.06
2018-06-01T21:14:26.358Z,95112.14
2018-06-01T21:16:55.673Z,95114.60
2018-06-01T21:19:24.549Z,95111.80
2018-06-01T21:21:54.709Z,95111.40
2018-06-01T21:24:24.580Z,95117.02
2018-06-01T21:26:53.609Z,95122.63
2018-06-01T21:29:22.926Z,95125.16
2018-06-01T21:31:51.919Z,95129.02
2018-06-01T21:34:20.565Z,95128.77
2018-06-01T21:36:49.026Z,95133.07
2018-06-01T21:39:17.952Z,95139.52
2018-06-01T21:41:46.934Z,95140.78
2018-06-01T21:44:17.127Z,95151.52
2018-06-01T21:46:46.331Z,95147.69
2018-06-01T21:49:15.368Z,95146.41
2018-06-01T21:51:45.028Z,95151.91
2018-06-01T21:54:14.144Z,95153.86
2018-06-01T21:56:44.476Z,95153.02
2018-06-01T21:59:15.586Z,95151.46
2018-06-01T22:01:44.635Z,95154.33
2018-06-01T22:04:15.681Z,95155.14
